createdAt,value
2019-05-19T00:01:54.382Z,15.80
2019-05-19T00:04:21.563Z,19.12
2019-05-19T00:06:48.308Z,16.70
2019-05-19T00:09:16.708Z,15.93
2019-05-19T00:11:43.877Z,19.05
2019-05-19T00:14:10.581Z,18.98
2019-05-19T00:16:37.266Z,19.57
2019-05-19T00:19:04.154Z,16.05
2019-05-19T00:21:30.848Z,18.42
2019-05-19T00:23:59.781Z,17.98
2019-05-19T00:26:26.639Z,18.45
2019-05-19T00:28:53.447Z,19.95
2019-05-19T00:31:21.326Z,17.65
2019-05-19T00:33:48.226Z,19.37
2019-05-19T00:36:14.972Z,17.75
2019-05-19T00:38:41.729Z,22.80
2019-05-19T00:41:08.487Z,16.17
2019-05-19T00:43:35.240Z,25.72
2019-05-19T00:46:03.319Z,17.42
2019-05-19T00:48:30.160Z,19.85
2019-05-19T00:50:56.926Z,16.77
2019-05-19T00:53:23.647Z,18.77
2019-05-19T00:55:50.823Z,18.25
2019-05-19T00:58:18.405Z,19.17
2019-05-19T01:00:45.095Z,17.92
2019-05-19T01:03:11.967Z,18.45
2019-05-19T01:05:38.709Z,19.00
2019-05-19T01:08:05.490Z,20.45
2019-05-19T01:10:32.234Z,18.73
2019-05-19T01:12:58.898Z,22.35
2019-05-19T01:15:25.583Z,20.52
2019-05-19T01:17:52.605Z,17.07
2019-05-19T01:20:20.636Z,18.20
2019-05-19T01:22:47.309Z,20.55
2019-05-19T01:25:14.255Z,15.78
2019-05-19T01:27:41.049Z,17.07
2019-05-19T01:30:09.137Z,17.05
2019-05-19T01:32:35.890Z,16.32
2019-05-19T01:35:04.146Z,15.48
2019-05-19T01:37:30.927Z,14.43
2019-05-19T01:39:57.669Z,16.65
2019-05-19T01:42:24.453Z,17.10
2019-05-19T01:44:51.331Z,15.78
2019-05-19T01:47:18.166Z,17.55
2019-05-19T01:49:44.996Z,14.78
2019-05-19T01:52:11.669Z,17.07
2019-05-19T01:54:38.420Z,17.77
2019-05-19T01:57:05.102Z,17.05
2019-05-19T01:59:31.791Z,15.45
2019-05-19T02:01:58.539Z,17.23
2019-05-19T02:04:25.200Z,18.07
2019-05-19T02:06:51.916Z,14.65
2019-05-19T02:09:18.735Z,17.10
2019-05-19T02:11:45.501Z,16.65
2019-05-19T02:14:12.269Z,14.43
2019-05-19T02:16:39.091Z,15.85
2019-05-19T02:19:05.773Z,13.98
2019-05-19T02:21:32.718Z,17.77
2019-05-19T02:23:59.459Z,15.58
2019-05-19T02:26:26.149Z,18.77
2019-05-19T02:28:52.902Z,15.23
2019-05-19T02:31:19.657Z,16.65
2019-05-19T02:33:46.355Z,18.07
2019-05-19T02:36:13.096Z,15.18
2019-05-19T02:38:40.087Z,16.75
2019-05-19T02:41:08.891Z,14.78
2019-05-19T02:43:36.544Z,17.90
2019-05-19T02:46:03.753Z,15.63
2019-05-19T02:48:32.049Z,18.42
2019-05-19T02:51:01.048Z,19.02
2019-05-19T02:53:29.334Z,16.48
2019-05-19T02:55:57.030Z,18.85
2019-05-19T02:58:24.610Z,19.85
2019-05-19T03:00:51.324Z,15.58
2019-05-19T03:03:18.019Z,14.23
2019-05-19T03:05:44.781Z,18.07
2019-05-19T03:08:11.475Z,19.55
2019-05-19T03:10:38.152Z,14.45
2019-05-19T03:13:04.812Z,19.70
2019-05-19T03:15:31.533Z,18.40
2019-05-19T03:17:58.202Z,19.05
2019-05-19T03:20:24.961Z,19.60
2019-05-19T03:22:51.731Z,21.23
2019-05-19T03:25:18.647Z,26.05
2019-05-19T03:27:45.330Z,20.68
2019-05-19T03:30:32.753Z,18.75
2019-05-19T03:33:13.354Z,19.10
2019-05-19T03:35:40.154Z,18.62
2019-05-19T03:38:06.822Z,17.23
2019-05-19T03:40:33.600Z,18.02
2019-05-19T03:43:00.269Z,16.52
2019-05-19T03:45:26.962Z,17.65
2019-05-19T03:47:53.644Z,17.95
2019-05-19T03:50:20.603Z,20.97
2019-05-19T03:52:47.444Z,19.15
2019-05-19T03:55:14.254Z,17.62
2019-05-19T03:57:41.049Z,14.30
2019-05-19T04:00:08.481Z,16.82
2019-05-19T04:02:35.116Z,13.90
2019-05-19T04:05:01.962Z,16.35
2019-05-19T04:07:28.683Z,16.48
2019-05-19T04:09:55.492Z,16.42
2019-05-19T04:12:22.182Z,17.20
2019-05-19T04:14:48.873Z,19.37
2019-05-19T04:17:15.643Z,16.73
2019-05-19T04:19:42.437Z,16.17
2019-05-19T04:22:09.124Z,16.57
2019-05-19T04:24:39.480Z,16.40
2019-05-19T04:27:06.131Z,15.35
2019-05-19T04:29:33.163Z,15.20
2019-05-19T04:31:59.837Z,12.23
2019-05-19T04:34:26.560Z,18.45
2019-05-19T04:36:53.258Z,14.50
2019-05-19T04:39:20.021Z,14.33
2019-05-19T04:41:46.694Z,11.93
2019-05-19T04:44:13.397Z,15.48
2019-05-19T04:46:40.163Z,11.65
2019-05-19T04:49:06.915Z,11.22
2019-05-19T04:51:33.614Z,12.10
2019-05-19T04:54:00.313Z,12.20
2019-05-19T04:56:27.014Z,14.00
2019-05-19T04:58:53.828Z,12.60
2019-05-19T05:01:20.495Z,13.08
2019-05-19T05:03:47.192Z,13.55
2019-05-19T05:06:13.860Z,14.38
2019-05-19T05:08:40.607Z,11.08
2019-05-19T05:11:07.277Z,14.73
2019-05-19T05:13:34.092Z,14.13
2019-05-19T05:16:00.851Z,11.15
2019-05-19T05:18:27.677Z,16.23
2019-05-19T05:20:54.436Z,12.80
2019-05-19T05:23:21.161Z,11.97
2019-05-19T05:25:47.862Z,13.22
2019-05-19T05:28:14.753Z,13.05
2019-05-19T05:30:41.441Z,12.13
2019-05-19T05:33:08.606Z,11.70
2019-05-19T05:35:35.287Z,11.55
2019-05-19T05:38:02.252Z,11.95
2019-05-19T05:40:29.033Z,13.48
2019-05-19T05:42:55.718Z,10.70
2019-05-19T05:45:22.801Z,10.45
2019-05-19T05:47:49.492Z,11.28
2019-05-19T05:50:16.413Z,12.70
2019-05-19T05:52:43.151Z,9.85
2019-05-19T05:55:09.962Z,9.73
2019-05-19T05:57:36.729Z,9.35
2019-05-19T06:00:06.065Z,10.60
2019-05-19T06:02:32.783Z,9.45
2019-05-19T06:04:59.504Z,15.40
2019-05-19T06:07:26.275Z,12.85
2019-05-19T06:09:53.326Z,10.32
2019-05-19T06:12:20.015Z,9.53
2019-05-19T06:14:46.761Z,10.20
2019-05-19T06:17:13.552Z,8.00
2019-05-19T06:19:40.232Z,9.33
2019-05-19T06:22:07.088Z,16.10
2019-05-19T06:24:33.774Z,9.58
2019-05-19T06:27:00.467Z,12.00
2019-05-19T06:29:27.238Z,8.70
2019-05-19T06:31:55.742Z,9.35
2019-05-19T06:34:22.455Z,7.67
2019-05-19T06:36:49.193Z,9.08
2019-05-19T06:39:15.968Z,8.80
2019-05-19T06:41:42.737Z,8.38
2019-05-19T06:44:09.500Z,10.05
2019-05-19T06:46:36.193Z,10.23
2019-05-19T06:49:03.026Z,7.90
2019-05-19T06:51:30.139Z,10.80
2019-05-19T06:53:56.811Z,11.12
2019-05-19T06:56:23.510Z,9.98
2019-05-19T06:58:50.239Z,10.55
2019-05-19T07:01:16.910Z,8.43
2019-05-19T07:03:43.593Z,9.18
2019-05-19T07:06:10.290Z,8.98
2019-05-19T07:08:36.828Z,9.90
2019-05-19T07:11:03.538Z,8.10
2019-05-19T07:13:30.438Z,7.17
2019-05-19T07:15:57.143Z,8.95
2019-05-19T07:18:23.809Z,7.90
2019-05-19T07:20:50.896Z,8.83
2019-05-19T07:23:27.782Z,9.68
2019-05-19T07:25:46.167Z,12.28
2019-05-19T07:28:12.972Z,9.83
2019-05-19T07:30:39.697Z,7.55
2019-05-19T07:33:06.491Z,6.70
2019-05-19T07:35:33.249Z,7.55
2019-05-19T07:37:59.948Z,6.67
2019-05-19T07:40:26.616Z,7.05
2019-05-19T07:42:53.356Z,7.37
2019-05-19T07:45:20.401Z,8.35
2019-05-19T07:47:47.148Z,8.25
2019-05-19T07:50:13.970Z,9.18
2019-05-19T07:52:40.738Z,8.45
2019-05-19T07:55:07.579Z,7.53
2019-05-19T07:57:34.316Z,8.33
2019-05-19T08:00:01.002Z,8.98
2019-05-19T08:02:27.785Z,9.50
2019-05-19T08:04:54.514Z,9.28
2019-05-19T08:07:22.367Z,8.78
2019-05-19T08:09:49.053Z,10.82
2019-05-19T08:12:16.997Z,7.42
2019-05-19T08:14:43.718Z,7.70
2019-05-19T08:17:10.391Z,6.78
2019-05-19T08:19:37.134Z,7.08
2019-05-19T08:22:03.810Z,7.47
2019-05-19T08:24:30.522Z,8.53
2019-05-19T08:26:57.296Z,6.00
2019-05-19T08:29:24.121Z,7.15
2019-05-19T08:31:50.925Z,8.70
2019-05-19T08:34:18.450Z,10.08
2019-05-19T08:36:45.160Z,8.23
2019-05-19T08:39:11.829Z,7.65
2019-05-19T08:41:38.567Z,8.23
2019-05-19T08:44:05.692Z,5.33
2019-05-19T08:46:32.445Z,6.30
2019-05-19T08:48:59.203Z,5.33
2019-05-19T08:51:25.881Z,5.97
2019-05-19T08:53:52.567Z,6.12
2019-05-19T08:56:19.393Z,8.38
2019-05-19T08:58:46.091Z,5.78
2019-05-19T09:01:12.778Z,8.38
2019-05-19T09:03:39.525Z,8.05
2019-05-19T09:06:06.237Z,6.25
2019-05-19T09:08:33.032Z,7.78
2019-05-19T09:10:59.758Z,7.58
2019-05-19T09:13:26.549Z,7.53
2019-05-19T09:15:53.715Z,7.53
2019-05-19T09:18:20.416Z,6.33
2019-05-19T09:20:47.130Z,6.97
2019-05-19T09:23:13.882Z,7.90
2019-05-19T09:25:40.619Z,7.15
2019-05-19T09:28:08.472Z,8.93
2019-05-19T09:30:35.259Z,50.63
2019-05-19T09:33:01.966Z,7.37
2019-05-19T09:35:28.639Z,9.20
2019-05-19T09:37:55.372Z,4.70
2019-05-19T09:40:22.052Z,7.65
2019-05-19T09:42:48.717Z,9.08
2019-05-19T09:45:16.031Z,12.50
2019-05-19T09:47:42.932Z,4.58
2019-05-19T09:50:10.161Z,7.97
2019-05-19T09:52:36.858Z,6.85
2019-05-19T09:55:05.183Z,10.43
2019-05-19T09:57:32.018Z,5.75
2019-05-19T09:59:58.699Z,8.18
2019-05-19T10:02:25.382Z,8.20
2019-05-19T10:04:52.290Z,7.12
2019-05-19T10:07:20.053Z,5.80
2019-05-19T10:09:57.554Z,6.50
2019-05-19T10:12:24.195Z,6.10
2019-05-19T10:14:50.885Z,7.05
2019-05-19T10:17:17.533Z,7.22
2019-05-19T10:19:44.273Z,4.08
2019-05-19T10:22:10.930Z,22.75
2019-05-19T10:24:37.702Z,6.33
2019-05-19T10:27:04.471Z,4.20
2019-05-19T10:29:31.306Z,5.95
2019-05-19T10:31:58.001Z,8.28
2019-05-19T10:34:24.701Z,8.60
2019-05-19T10:36:51.530Z,5.15
2019-05-19T10:39:18.283Z,5.20
2019-05-19T10:41:44.952Z,7.83
2019-05-19T10:44:11.643Z,6.15
2019-05-19T10:46:38.413Z,8.00
2019-05-19T10:49:05.534Z,5.08
2019-05-19T10:51:32.225Z,8.30
2019-05-19T10:53:58.992Z,4.75
2019-05-19T10:56:25.729Z,4.15
2019-05-19T10:58:52.437Z,9.00
2019-05-19T11:01:19.259Z,6.00
2019-05-19T11:03:45.908Z,5.53
2019-05-19T11:06:12.653Z,6.58
2019-05-19T11:08:39.730Z,6.78
2019-05-19T11:11:06.401Z,6.30
2019-05-19T11:13:33.104Z,8.65
2019-05-19T11:15:59.864Z,7.17
2019-05-19T11:18:26.623Z,4.05
2019-05-19T11:20:53.292Z,5.50
2019-05-19T11:23:20.063Z,6.55
2019-05-19T11:25:51.627Z,5.17
2019-05-19T11:28:15.382Z,7.17
2019-05-19T11:30:42.215Z,8.63
2019-05-19T11:33:09.007Z,6.42
2019-05-19T11:35:35.729Z,9.20
2019-05-19T11:38:02.499Z,6.53
2019-05-19T11:40:29.186Z,5.67
2019-05-19T11:42:55.914Z,5.70
2019-05-19T11:45:22.613Z,8.65
2019-05-19T11:47:49.339Z,8.25
2019-05-19T11:50:16.186Z,6.90
2019-05-19T11:52:42.883Z,7.55
2019-05-19T11:55:09.577Z,7.70
2019-05-19T11:57:36.338Z,11.80
2019-05-19T12:00:04.986Z,17.30
2019-05-19T12:02:31.748Z,5.70
2019-05-19T12:04:58.546Z,7.30
2019-05-19T12:07:25.441Z,6.70
2019-05-19T12:09:52.115Z,4.85
2019-05-19T12:12:18.912Z,9.90
2019-05-19T12:14:45.605Z,6.45
2019-05-19T12:17:12.390Z,8.10
2019-05-19T12:19:39.112Z,6.33
2019-05-19T12:22:05.835Z,7.05
2019-05-19T12:24:33.520Z,7.87
2019-05-19T12:27:00.222Z,6.37
2019-05-19T12:29:26.894Z,7.72
2019-05-19T12:31:53.560Z,7.87
2019-05-19T12:34:21.411Z,6.20
2019-05-19T12:36:48.766Z,10.20
2019-05-19T12:39:20.574Z,8.63
2019-05-19T12:41:58.896Z,7.12
2019-05-19T12:44:25.609Z,6.12
2019-05-19T12:46:52.324Z,7.97
2019-05-19T12:49:19.050Z,6.40
2019-05-19T12:51:45.842Z,9.03
2019-05-19T12:54:13.338Z,10.25
2019-05-19T12:56:40.407Z,6.70
2019-05-19T12:59:07.207Z,7.25
2019-05-19T13:01:33.939Z,7.22
2019-05-19T13:04:00.678Z,8.20
2019-05-19T13:06:27.469Z,10.98
2019-05-19T13:08:54.163Z,7.10
2019-05-19T13:11:21.072Z,7.53
2019-05-19T13:13:47.862Z,8.73
2019-05-19T13:16:15.577Z,7.60
2019-05-19T13:18:42.350Z,9.75
2019-05-19T13:21:09.107Z,6.72
2019-05-19T13:23:35.803Z,8.60
2019-05-19T13:26:02.611Z,5.80
2019-05-19T13:28:29.295Z,7.70
2019-05-19T13:30:55.982Z,8.03
2019-05-19T13:33:22.732Z,6.90
2019-05-19T13:35:49.489Z,7.37
2019-05-19T13:38:16.174Z,7.10
2019-05-19T13:40:42.897Z,8.83
2019-05-19T13:43:09.645Z,7.28
2019-05-19T13:45:36.425Z,6.47
2019-05-19T13:48:03.269Z,7.10
2019-05-19T13:50:30.151Z,6.90
2019-05-19T13:52:56.932Z,9.13
2019-05-19T13:55:23.617Z,8.53
2019-05-19T13:57:50.367Z,6.85
2019-05-19T14:00:17.041Z,9.88
2019-05-19T14:02:43.914Z,9.83
2019-05-19T14:05:11.077Z,9.85
2019-05-19T14:07:37.745Z,9.18
2019-05-19T14:10:05.741Z,8.65
2019-05-19T14:12:32.674Z,5.92
2019-05-19T14:14:59.656Z,9.65
2019-05-19T14:17:26.430Z,10.18
2019-05-19T14:19:53.269Z,9.20
2019-05-19T14:22:20.143Z,7.58
2019-05-19T14:24:46.908Z,8.53
2019-05-19T14:27:28.426Z,7.83
2019-05-19T14:29:42.323Z,10.23
2019-05-19T14:32:09.100Z,9.90
2019-05-19T14:34:35.912Z,17.07
2019-05-19T14:37:02.576Z,10.60
2019-05-19T14:39:29.295Z,10.88
2019-05-19T14:41:57.822Z,6.92
2019-05-19T14:44:24.515Z,10.08
2019-05-19T14:46:51.456Z,8.70
2019-05-19T14:49:18.220Z,17.65
2019-05-19T14:51:44.929Z,8.43
2019-05-19T14:54:11.594Z,10.80
2019-05-19T14:56:38.463Z,11.48
2019-05-19T14:59:05.231Z,10.15
2019-05-19T15:01:32.003Z,9.28
2019-05-19T15:03:59.202Z,12.20
2019-05-19T15:06:25.861Z,12.93
2019-05-19T15:08:52.562Z,11.38
2019-05-19T15:11:19.388Z,10.53
2019-05-19T15:13:46.094Z,11.57
2019-05-19T15:16:12.801Z,10.85
2019-05-19T15:18:39.563Z,10.68
2019-05-19T15:21:06.256Z,12.75
2019-05-19T15:23:32.989Z,17.48
2019-05-19T15:25:59.776Z,16.82
2019-05-19T15:28:26.452Z,21.27
2019-05-19T15:30:53.473Z,14.43
2019-05-19T15:33:20.180Z,13.25
2019-05-19T15:35:46.965Z,11.83
2019-05-19T15:38:13.706Z,11.15
2019-05-19T15:40:40.406Z,8.85
2019-05-19T15:43:07.110Z,10.25
2019-05-19T15:45:33.913Z,14.68
2019-05-19T15:48:00.590Z,11.10
2019-05-19T15:50:27.306Z,10.78
2019-05-19T15:52:54.111Z,13.18
2019-05-19T15:55:20.912Z,11.50
2019-05-19T15:57:47.922Z,14.15
2019-05-19T16:00:15.951Z,12.82
2019-05-19T16:02:42.723Z,11.03
2019-05-19T16:05:09.684Z,15.98
2019-05-19T16:07:36.527Z,18.57
2019-05-19T16:10:06.723Z,11.35
2019-05-19T16:12:33.525Z,11.57
2019-05-19T16:15:00.334Z,10.25
2019-05-19T16:17:27.041Z,13.75
2019-05-19T16:19:53.746Z,12.88
2019-05-19T16:22:20.486Z,12.88
2019-05-19T16:24:47.284Z,12.93
2019-05-19T16:27:13.977Z,11.43
2019-05-19T16:29:41.934Z,9.50
2019-05-19T16:32:08.831Z,13.20
2019-05-19T16:34:35.638Z,11.80
2019-05-19T16:37:02.704Z,10.48
2019-05-19T16:39:30.381Z,11.60
2019-05-19T16:41:57.076Z,10.08
2019-05-19T16:44:23.845Z,15.45
2019-05-19T16:46:50.532Z,14.03
2019-05-19T16:49:17.303Z,16.07
2019-05-19T16:51:43.985Z,14.05
2019-05-19T16:54:15.541Z,10.48
2019-05-19T16:56:42.217Z,15.90
2019-05-19T16:59:09.989Z,12.93
2019-05-19T17:01:36.721Z,15.53
2019-05-19T17:04:03.679Z,12.40
2019-05-19T17:06:30.413Z,11.60
2019-05-19T17:08:59.118Z,14.07
2019-05-19T17:11:26.098Z,13.78
2019-05-19T17:13:52.870Z,12.98
2019-05-19T17:16:20.568Z,14.45
2019-05-19T17:18:47.343Z,15.53
2019-05-19T17:21:14.095Z,13.22
2019-05-19T17:23:40.762Z,15.35
2019-05-19T17:26:07.524Z,14.98
2019-05-19T17:28:34.692Z,15.38
2019-05-19T17:31:01.386Z,13.75
2019-05-19T17:33:28.081Z,15.85
2019-05-19T17:35:54.798Z,14.65
2019-05-19T17:38:21.546Z,15.00
2019-05-19T17:40:48.292Z,13.00
2019-05-19T17:43:15.409Z,13.53
2019-05-19T17:45:42.143Z,14.20
2019-05-19T17:48:11.690Z,14.18
2019-05-19T17:50:37.540Z,14.95
2019-05-19T17:53:04.500Z,11.88
2019-05-19T17:55:33.034Z,16.12
2019-05-19T17:58:01.234Z,12.53
2019-05-19T18:00:40.041Z,12.90
2019-05-19T18:03:07.319Z,14.47
2019-05-19T18:05:34.416Z,16.93
2019-05-19T18:08:01.504Z,15.98
2019-05-19T18:10:28.663Z,14.60
2019-05-19T18:12:55.643Z,10.72
2019-05-19T18:15:22.458Z,10.43
2019-05-19T18:17:49.214Z,12.65
2019-05-19T18:20:23.733Z,14.87
2019-05-19T18:22:45.800Z,16.00
2019-05-19T18:25:12.571Z,16.50
2019-05-19T18:27:39.264Z,14.53
2019-05-19T18:30:06.170Z,17.73
2019-05-19T18:32:33.013Z,12.78
2019-05-19T18:34:59.694Z,9.38
2019-05-19T18:37:26.488Z,12.63
2019-05-19T18:39:53.269Z,10.98
2019-05-19T18:42:20.608Z,11.85
2019-05-19T18:44:47.508Z,11.78
2019-05-19T18:47:14.710Z,11.85
2019-05-19T18:49:41.686Z,11.40
2019-05-19T18:52:08.451Z,7.62
2019-05-19T18:54:35.163Z,12.68
2019-05-19T18:57:02.176Z,9.70
2019-05-19T18:59:29.070Z,7.83
2019-05-19T19:01:55.766Z,8.48
2019-05-19T19:04:22.767Z,9.38
2019-05-19T19:06:49.582Z,5.95
2019-05-19T19:09:16.284Z,11.12
2019-05-19T19:11:43.070Z,6.97
2019-05-19T19:14:09.942Z,7.75
2019-05-19T19:16:36.691Z,7.37
2019-05-19T19:19:03.516Z,9.60
2019-05-19T19:21:30.282Z,7.92
2019-05-19T19:23:56.992Z,7.87
2019-05-19T19:26:23.844Z,7.35
2019-05-19T19:28:50.714Z,6.62
2019-05-19T19:31:17.495Z,8.03
2019-05-19T19:33:44.313Z,8.58
2019-05-19T19:36:11.130Z,9.68
2019-05-19T19:38:37.973Z,9.05
2019-05-19T19:41:04.711Z,6.03
2019-05-19T19:43:32.550Z,7.45
2019-05-19T19:45:59.348Z,4.35
2019-05-19T19:48:26.135Z,6.37
2019-05-19T19:50:53.090Z,3.75
2019-05-19T19:53:20.876Z,7.10
2019-05-19T19:55:47.690Z,9.18
2019-05-19T19:58:14.489Z,7.08
2019-05-19T20:00:43.185Z,9.55
2019-05-19T20:03:10.484Z,3.70
2019-05-19T20:05:39.782Z,6.05
2019-05-19T20:08:06.777Z,3.72
2019-05-19T20:10:35.159Z,7.40
2019-05-19T20:13:02.061Z,6.92
2019-05-19T20:15:28.828Z,9.78
2019-05-19T20:17:55.662Z,4.70
2019-05-19T20:20:24.149Z,6.47
2019-05-19T20:22:50.983Z,6.87
2019-05-19T20:25:17.774Z,8.23
2019-05-19T20:27:44.723Z,8.23
2019-05-19T20:30:11.841Z,4.10
2019-05-19T20:32:38.558Z,6.25
2019-05-19T20:35:05.657Z,5.42
2019-05-19T20:37:32.499Z,4.53
2019-05-19T20:39:59.176Z,7.00
2019-05-19T20:42:25.937Z,4.00
2019-05-19T20:44:52.600Z,4.42
2019-05-19T20:47:19.375Z,7.00
2019-05-19T20:49:46.036Z,6.97
2019-05-19T20:52:13.241Z,4.97
2019-05-19T20:54:40.095Z,4.58
2019-05-19T20:57:06.863Z,3.33
2019-05-19T20:59:33.642Z,4.42
2019-05-19T21:02:00.457Z,7.55
2019-05-19T21:04:27.303Z,6.12
2019-05-19T21:06:54.293Z,4.65
2019-05-19T21:09:21.112Z,7.15
2019-05-19T21:11:47.953Z,4.90
2019-05-19T21:14:14.644Z,6.80
2019-05-19T21:16:41.406Z,5.30
2019-05-19T21:19:09.944Z,3.95
2019-05-19T21:21:36.710Z,9.28
2019-05-19T21:24:03.652Z,5.92
2019-05-19T21:26:30.398Z,4.78
2019-05-19T21:28:57.162Z,3.52
2019-05-19T21:31:23.863Z,5.40
2019-05-19T21:33:50.570Z,4.28
2019-05-19T21:36:18.314Z,3.95
2019-05-19T21:38:45.446Z,5.60
2019-05-19T21:41:12.420Z,6.35
2019-05-19T21:43:39.159Z,6.85
2019-05-19T21:46:06.580Z,5.67
2019-05-19T21:48:34.338Z,8.18
2019-05-19T21:51:01.571Z,6.00
2019-05-19T21:53:28.441Z,5.87
2019-05-19T21:55:55.355Z,4.25
2019-05-19T21:58:22.187Z,5.12
2019-05-19T22:00:49.358Z,3.25
2019-05-19T22:03:16.843Z,5.12
2019-05-19T22:05:52.922Z,7.35
2019-05-19T22:08:18.441Z,3.67
2019-05-19T22:10:45.302Z,5.28
2019-05-19T22:13:12.304Z,5.10
2019-05-19T22:15:38.999Z,4.25
2019-05-19T22:18:05.856Z,6.85
2019-05-19T22:20:32.702Z,4.30
2019-05-19T22:22:59.443Z,5.25
2019-05-19T22:25:26.148Z,2.55
2019-05-19T22:27:52.827Z,5.83
2019-05-19T22:30:20.052Z,4.97
2019-05-19T22:32:48.655Z,3.55
2019-05-19T22:35:15.368Z,4.97
2019-05-19T22:37:42.066Z,4.53
2019-05-19T22:40:09.408Z,5.75
2019-05-19T22:42:36.154Z,6.05
2019-05-19T22:45:06.534Z,4.45
2019-05-19T22:47:33.213Z,6.10
2019-05-19T22:50:00.030Z,4.78
2019-05-19T22:52:26.928Z,6.50
2019-05-19T22:54:53.662Z,4.75
2019-05-19T22:57:20.433Z,5.72
2019-05-19T22:59:47.161Z,6.75
2019-05-19T23:02:13.851Z,3.77
2019-05-19T23:04:40.817Z,5.17
2019-05-19T23:07:07.486Z,4.08
2019-05-19T23:09:34.276Z,3.72
2019-05-19T23:12:00.979Z,6.97
2019-05-19T23:14:27.893Z,6.10
2019-05-19T23:16:54.578Z,5.42
2019-05-19T23:19:21.363Z,4.87
2019-05-19T23:21:48.127Z,4.08
2019-05-19T23:24:14.926Z,4.95
2019-05-19T23:26:41.907Z,6.30
2019-05-19T23:29:08.607Z,5.08
2019-05-19T23:31:35.363Z,4.62
2019-05-19T23:34:02.145Z,4.55
2019-05-19T23:36:28.821Z,4.20
2019-05-19T23:38:55.562Z,6.47
2019-05-19T23:41:22.241Z,5.00
2019-05-19T23:43:48.939Z,6.53
2019-05-19T23:46:15.644Z,6.20
2019-05-19T23:48:42.388Z,6.42
2019-05-19T23:51:09.182Z,6.42
2019-05-19T23:53:35.942Z,3.75
2019-05-19T23:56:03.009Z,7.28
2019-05-19T23:58:29.685Z,6.03
